Time;durP1;ratioP1;P1;durP2;ratioP2;P2;SDS_P1;SDS_P2;PMS_P1;PMS_P2;Temp;Humidity;BMP_temperature;BMP_pressure;BME280_temperature;BME280_humidity;BME280_pressure;Samples;Min_cycle;Max_cycle;Signal;HPM_P1;HPM_P2
2023/06/09 00:01:44;;;;;;;19.67;14.15;;;;;;;;;;10443582;28;20587;-89
2023/06/09 00:06:46;;;;;;;21.00;14.90;;;;;;;;;;10423793;28;20090;-89
2023/06/09 00:11:48;;;;;;;20.65;14.95;;;;;;;;;;10428911;28;20048;-89
2023/06/09 00:16:49;;;;;;;20.98;13.52;;;;;;;;;;10428390;28;20029;-90
2023/06/09 00:21:50;;;;;;;21.40;13.88;;;;;;;;;;10447951;28;20056;-87
2023/06/09 00:26:52;;;;;;;20.00;14.32;;;;;;;;;;10430971;28;20584;-88
2023/06/09 00:31:53;;;;;;;18.95;14.25;;;;;;;;;;10435863;28;20025;-89
2023/06/09 00:36:54;;;;;;;19.48;13.85;;;;;;;;;;10428210;28;20021;-89
2023/06/09 00:41:55;;;;;;;20.77;15.20;;;;;;;;;;10428684;28;20055;-91
2023/06/09 00:46:56;;;;;;;20.35;14.73;;;;;;;;;;10426600;28;20049;-89
2023/06/09 00:51:58;;;;;;;21.13;15.15;;;;;;;;;;10404910;28;20032;-89
2023/06/09 00:56:59;;;;;;;18.77;14.88;;;;;;;;;;10424049;28;20091;-87
2023/06/09 01:02:00;;;;;;;21.05;13.88;;;;;;;;;;10425433;28;20041;-88
2023/06/09 01:07:08;;;;;;;18.90;14.00;;;;;;;;;;10428807;28;20083;-89
2023/06/09 01:12:09;;;;;;;19.88;14.15;;;;;;;;;;10445666;28;20474;-88
2023/06/09 01:17:14;;;;;;;21.95;15.05;;;;;;;;;;10426890;28;20085;-88
2023/06/09 01:22:38;;;;;;;22.60;16.30;;;;;;;;;;10426861;28;20040;-91
2023/06/09 01:27:44;;;;;;;21.30;15.30;;;;;;;;;;10432716;28;20056;-88
2023/06/09 01:32:45;;;;;;;19.38;14.57;;;;;;;;;;10446108;28;20036;-89
2023/06/09 01:37:47;;;;;;;21.35;14.90;;;;;;;;;;10427404;28;20734;-86
2023/06/09 01:42:48;;;;;;;20.42;14.90;;;;;;;;;;10441188;28;20045;-88
2023/06/09 01:47:49;;;;;;;22.42;15.55;;;;;;;;;;10441017;28;20031;-89
2023/06/09 01:52:51;;;;;;;18.67;14.35;;;;;;;;;;10445659;28;20036;-88
2023/06/09 01:58:07;;;;;;;20.85;14.48;;;;;;;;;;10446738;28;20062;-87
2023/06/09 02:03:10;;;;;;;20.73;15.02;;;;;;;;;;10415055;28;20041;-88
2023/06/09 02:08:12;;;;;;;21.02;15.40;;;;;;;;;;10424163;28;20052;-87
2023/06/09 02:13:13;;;;;;;21.38;15.35;;;;;;;;;;10441971;28;20051;-87
2023/06/09 02:18:20;;;;;;;20.08;14.90;;;;;;;;;;10437050;28;20746;-88
2023/06/09 02:23:22;;;;;;;21.27;15.68;;;;;;;;;;10440280;28;20044;-89
2023/06/09 02:28:23;;;;;;;25.23;16.13;;;;;;;;;;10419282;28;20029;-88
2023/06/09 02:33:25;;;;;;;19.20;15.05;;;;;;;;;;10440517;28;20033;-88
2023/06/09 02:38:26;;;;;;;22.52;16.38;;;;;;;;;;10424448;28;20021;-88
2023/06/09 02:43:27;;;;;;;21.65;15.77;;;;;;;;;;10423320;28;20035;-87
2023/06/09 02:48:28;;;;;;;25.08;16.30;;;;;;;;;;10442785;28;20051;-88
2023/06/09 02:53:29;;;;;;;20.77;15.68;;;;;;;;;;10442941;28;20036;-89
2023/06/09 02:58:30;;;;;;;20.48;14.45;;;;;;;;;;10425524;28;20040;-88
2023/06/09 03:03:31;;;;;;;19.52;13.63;;;;;;;;;;10450695;28;20526;-89
2023/06/09 03:08:32;;;;;;;20.92;14.45;;;;;;;;;;10451232;28;20048;-88
2023/06/09 03:13:33;;;;;;;20.45;14.98;;;;;;;;;;10449305;28;20047;-89
2023/06/09 03:18:37;;;;;;;21.25;15.13;;;;;;;;;;10430705;28;20430;-88
2023/06/09 03:23:38;;;;;;;23.33;15.70;;;;;;;;;;10451429;28;20454;-88
2023/06/09 03:28:39;;;;;;;22.88;16.05;;;;;;;;;;10431538;28;20037;-88
2023/06/09 03:33:40;;;;;;;21.92;17.05;;;;;;;;;;10450682;28;20622;-88
2023/06/09 03:38:41;;;;;;;21.15;16.00;;;;;;;;;;10445300;28;20035;-88
2023/06/09 03:43:42;;;;;;;21.23;15.68;;;;;;;;;;10430646;28;20147;-89
2023/06/09 03:48:43;;;;;;;21.52;16.42;;;;;;;;;;10429654;28;20024;-87
2023/06/09 03:53:45;;;;;;;24.40;17.58;;;;;;;;;;10449148;28;20089;-88
2023/06/09 03:58:46;;;;;;;26.60;19.38;;;;;;;;;;10420294;28;20143;-88
2023/06/09 04:03:47;;;;;;;30.90;20.80;;;;;;;;;;10446509;28;20028;-89
2023/06/09 04:08:48;;;;;;;33.60;22.02;;;;;;;;;;10439677;28;20484;-88
2023/06/09 04:13:49;;;;;;;35.45;21.77;;;;;;;;;;10445044;28;20033;-89
2023/06/09 04:18:50;;;;;;;38.30;23.77;;;;;;;;;;10445680;28;20036;-88
2023/06/09 04:23:51;;;;;;;38.50;24.67;;;;;;;;;;10447990;28;20029;-87
2023/06/09 04:28:53;;;;;;;34.55;22.52;;;;;;;;;;10433569;28;20615;-88
2023/06/09 04:33:55;;;;;;;37.75;23.60;;;;;;;;;;10447656;28;20702;-88
2023/06/09 04:38:57;;;;;;;37.95;24.58;;;;;;;;;;10428185;28;20087;-89
2023/06/09 04:44:03;;;;;;;36.40;23.80;;;;;;;;;;10446412;28;20029;-87
2023/06/09 04:49:10;;;;;;;35.75;23.80;;;;;;;;;;10446565;28;20017;-87
2023/06/09 04:54:11;;;;;;;41.22;25.60;;;;;;;;;;10446406;28;20032;-88
2023/06/09 04:59:12;;;;;;;37.28;24.33;;;;;;;;;;10433568;28;20612;-87
2023/06/09 05:04:14;;;;;;;38.95;25.50;;;;;;;;;;10445966;28;20507;-89
2023/06/09 05:09:15;;;;;;;37.72;24.63;;;;;;;;;;10446433;28;20056;-87
2023/06/09 05:14:16;;;;;;;35.92;23.70;;;;;;;;;;10444241;28;20029;-88
2023/06/09 05:19:17;;;;;;;34.30;23.10;;;;;;;;;;10426628;28;20097;-88
2023/06/09 05:24:18;;;;;;;33.13;22.75;;;;;;;;;;10445139;28;20078;-88
2023/06/09 05:29:19;;;;;;;33.30;22.95;;;;;;;;;;10415054;28;20380;-87
2023/06/09 05:34:20;;;;;;;31.08;22.30;;;;;;;;;;10445873;28;20090;-87
2023/06/09 05:39:21;;;;;;;31.02;22.05;;;;;;;;;;10444738;28;20640;-87
2023/06/09 05:44:22;;;;;;;27.20;19.33;;;;;;;;;;10444185;28;20033;-88
2023/06/09 05:49:23;;;;;;;25.92;19.40;;;;;;;;;;10427131;28;20048;-88
2023/06/09 05:54:24;;;;;;;24.63;18.92;;;;;;;;;;10426162;28;20117;-88
2023/06/09 05:59:25;;;;;;;26.23;19.63;;;;;;;;;;10421605;28;20036;-88
2023/06/09 06:04:28;;;;;;;22.60;17.52;;;;;;;;;;10424167;28;20088;-87
2023/06/09 06:09:29;;;;;;;23.92;17.50;;;;;;;;;;10441765;28;20032;-88
2023/06/09 06:14:30;;;;;;;22.17;16.88;;;;;;;;;;10441597;28;20600;-88
2023/06/09 06:19:31;;;;;;;21.13;17.75;;;;;;;;;;10424580;28;20047;-87
2023/06/09 06:24:32;;;;;;;19.27;14.93;;;;;;;;;;10438177;28;20028;-90
2023/06/09 06:29:33;;;;;;;20.38;16.13;;;;;;;;;;10423380;28;20464;-91
2023/06/09 06:34:34;;;;;;;20.33;15.07;;;;;;;;;;10430376;28;20464;-88
2023/06/09 06:39:36;;;;;;;19.27;14.63;;;;;;;;;;10425411;28;20049;-88
2023/06/09 06:44:37;;;;;;;18.02;15.02;;;;;;;;;;10443333;28;20039;-90
2023/06/09 06:49:38;;;;;;;18.05;13.98;;;;;;;;;;10429971;28;20021;-86
2023/06/09 06:54:39;;;;;;;16.48;14.07;;;;;;;;;;10430609;28;20071;-92
2023/06/09 06:59:48;;;;;;;17.80;14.07;;;;;;;;;;10448769;28;20891;-92
2023/06/09 07:04:50;;;;;;;17.23;14.05;;;;;;;;;;10429785;28;20057;-90
2023/06/09 07:09:51;;;;;;;18.75;15.32;;;;;;;;;;10427166;28;20665;-89
2023/06/09 07:14:53;;;;;;;17.02;14.70;;;;;;;;;;10439506;28;20033;-91
2023/06/09 07:19:54;;;;;;;17.10;14.68;;;;;;;;;;10413447;28;20101;-90
2023/06/09 07:24:56;;;;;;;17.60;14.27;;;;;;;;;;10424387;28;20028;-88
2023/06/09 07:29:57;;;;;;;18.13;14.13;;;;;;;;;;10440081;28;20029;-89
2023/06/09 07:34:59;;;;;;;16.23;14.05;;;;;;;;;;10441823;28;20056;-91
2023/06/09 07:40:01;;;;;;;15.43;13.43;;;;;;;;;;10420067;28;20435;-90
2023/06/09 07:45:02;;;;;;;15.95;13.13;;;;;;;;;;10421489;28;20813;-90
2023/06/09 07:50:06;;;;;;;16.92;14.45;;;;;;;;;;10415928;28;20056;-91
2023/06/09 07:55:07;;;;;;;16.52;14.82;;;;;;;;;;10407477;28;20556;-90
2023/06/09 08:00:09;;;;;;;16.08;14.18;;;;;;;;;;10419744;28;20045;-91
2023/06/09 08:05:10;;;;;;;16.55;14.40;;;;;;;;;;10423490;28;20049;-89
2023/06/09 08:10:22;;;;;;;17.08;15.13;;;;;;;;;;10435387;28;20028;-91
2023/06/09 08:15:23;;;;;;;17.33;14.32;;;;;;;;;;10417135;28;20025;-92
2023/06/09 08:20:28;;;;;;;15.75;13.77;;;;;;;;;;10407765;28;20041;-90
2023/06/09 08:25:29;;;;;;;16.08;12.50;;;;;;;;;;10405152;28;20025;-90
2023/06/09 08:30:31;;;;;;;12.88;11.57;;;;;;;;;;10414299;28;20978;-92
2023/06/09 08:35:32;;;;;;;14.13;11.52;;;;;;;;;;10398045;28;20417;-88
2023/06/09 08:40:35;;;;;;;18.40;11.80;;;;;;;;;;10421363;28;20030;-94
2023/06/09 08:45:36;;;;;;;13.98;12.23;;;;;;;;;;10411124;28;20028;-91
2023/06/09 08:50:41;;;;;;;14.88;12.88;;;;;;;;;;10424382;28;20048;-92
2023/06/09 08:55:43;;;;;;;14.90;13.35;;;;;;;;;;10422981;28;20120;-90
2023/06/09 09:00:44;;;;;;;17.58;14.70;;;;;;;;;;10419611;28;20039;-90
2023/06/09 09:05:49;;;;;;;16.48;13.55;;;;;;;;;;10425238;28;20098;-91
2023/06/09 09:10:50;;;;;;;13.48;12.18;;;;;;;;;;10419497;28;20040;-91
2023/06/09 09:15:51;;;;;;;13.93;11.80;;;;;;;;;;10435354;28;20037;-89
2023/06/09 09:20:55;;;;;;;12.82;11.43;;;;;;;;;;10402087;28;20080;-91
2023/06/09 09:25:56;;;;;;;14.93;12.23;;;;;;;;;;10422444;28;20047;-90
2023/06/09 09:30:57;;;;;;;13.35;12.00;;;;;;;;;;10425533;28;20025;-89
2023/06/09 09:35:59;;;;;;;15.65;13.35;;;;;;;;;;10444802;28;20104;-87
2023/06/09 09:41:10;;;;;;;16.92;13.88;;;;;;;;;;10421643;28;20480;-92
2023/06/09 09:46:11;;;;;;;17.90;15.10;;;;;;;;;;10432545;28;20044;-88
2023/06/09 09:51:13;;;;;;;16.00;13.85;;;;;;;;;;10428091;28;20040;-90
2023/06/09 09:56:27;;;;;;;16.83;13.00;;;;;;;;;;10445548;28;20028;-91
2023/06/09 10:01:28;;;;;;;15.53;13.57;;;;;;;;;;10431974;28;20116;-93
2023/06/09 10:06:30;;;;;;;13.50;12.10;;;;;;;;;;10425630;28;20308;-89
2023/06/09 10:11:32;;;;;;;13.90;12.35;;;;;;;;;;10435480;28;20052;-91
2023/06/09 10:16:33;;;;;;;14.00;12.38;;;;;;;;;;10426439;28;20029;-90
2023/06/09 10:21:36;;;;;;;12.93;10.55;;;;;;;;;;10424258;28;20170;-89
2023/06/09 10:26:38;;;;;;;13.52;10.20;;;;;;;;;;10424701;28;20829;-91
2023/06/09 10:31:41;;;;;;;12.13;10.48;;;;;;;;;;10425435;28;20468;-91
2023/06/09 10:36:42;;;;;;;12.25;10.57;;;;;;;;;;10425319;28;20036;-91
2023/06/09 10:42:02;;;;;;;12.85;11.45;;;;;;;;;;10425410;28;20097;-90
2023/06/09 10:47:04;;;;;;;13.38;10.63;;;;;;;;;;10426939;28;20029;-88
2023/06/09 10:52:23;;;;;;;12.80;10.68;;;;;;;;;;10443353;28;20021;-91
2023/06/09 10:57:35;;;;;;;11.82;10.00;;;;;;;;;;10420290;28;20024;-87
2023/06/09 11:02:36;;;;;;;12.23;9.82;;;;;;;;;;10424653;28;20087;-88
2023/06/09 11:07:46;;;;;;;9.70;8.32;;;;;;;;;;10425546;28;20053;-88
2023/06/09 11:12:49;;;;;;;9.88;8.27;;;;;;;;;;10443028;28;20099;-86
2023/06/09 11:17:54;;;;;;;9.43;8.47;;;;;;;;;;10442779;28;20144;-86
2023/06/09 11:22:59;;;;;;;12.70;8.90;;;;;;;;;;10450172;28;20642;-87
2023/06/09 11:28:00;;;;;;;10.60;8.65;;;;;;;;;;10450157;28;20187;-88
2023/06/09 11:33:02;;;;;;;10.43;8.82;;;;;;;;;;10448573;28;20529;-87
2023/06/09 11:38:10;;;;;;;11.80;9.90;;;;;;;;;;10429113;28;20488;-91
2023/06/09 11:43:11;;;;;;;9.52;8.35;;;;;;;;;;10430592;28;20085;-87
2023/06/09 11:48:13;;;;;;;10.55;8.10;;;;;;;;;;10430126;28;20032;-86
2023/06/09 11:53:16;;;;;;;13.85;8.60;;;;;;;;;;10447485;28;20684;-88
2023/06/09 11:58:17;;;;;;;10.88;8.07;;;;;;;;;;10448048;28;20064;-89
2023/06/09 12:03:19;;;;;;;8.23;7.43;;;;;;;;;;10429046;28;20036;-84
2023/06/09 12:08:20;;;;;;;7.78;6.32;;;;;;;;;;10447260;28;20053;-85
2023/06/09 12:13:21;;;;;;;11.65;6.07;;;;;;;;;;10447401;28;20024;-89
2023/06/09 12:18:22;;;;;;;7.15;6.40;;;;;;;;;;10430058;28;20778;-85
2023/06/09 12:23:27;;;;;;;7.18;6.10;;;;;;;;;;10447391;28;20075;-89
2023/06/09 12:28:31;;;;;;;;;;;;;;;;;;10429452;28;20060;-87
2023/06/09 12:33:33;;;;;;;9.88;7.22;;;;;;;;;;10436055;28;19936;-88
2023/06/09 12:38:38;;;;;;;8.45;6.28;;;;;;;;;;10446533;28;20024;-87
2023/06/09 12:43:52;;;;;;;8.52;6.50;;;;;;;;;;10428100;28;20029;-85
2023/06/09 12:49:02;;;;;;;9.83;6.40;;;;;;;;;;10446115;28;20604;-86
2023/06/09 12:54:03;;;;;;;15.10;10.18;;;;;;;;;;10426832;28;20286;-86
2023/06/09 12:59:06;;;;;;;11.35;7.50;;;;;;;;;;10446576;28;20032;-90
2023/06/09 13:04:07;;;;;;;12.60;7.93;;;;;;;;;;10426616;28;20036;-85
2023/06/09 13:09:08;;;;;;;8.05;6.55;;;;;;;;;;10425759;28;20073;-85
2023/06/09 13:14:09;;;;;;;10.43;8.20;;;;;;;;;;10429348;28;20016;-88
2023/06/09 13:19:10;;;;;;;12.88;9.48;;;;;;;;;;10440980;28;20127;-83
2023/06/09 13:24:11;;;;;;;14.73;8.85;;;;;;;;;;10444112;28;20853;-86
2023/06/09 13:29:12;;;;;;;10.90;7.72;;;;;;;;;;10425399;28;20054;-84
2023/06/09 13:34:14;;;;;;;11.18;8.70;;;;;;;;;;10444813;28;20021;-84
2023/06/09 13:39:15;;;;;;;11.55;8.85;;;;;;;;;;10443633;28;20107;-84
2023/06/09 13:44:19;;;;;;;12.02;9.05;;;;;;;;;;10443889;28;20040;-84
2023/06/09 13:49:20;;;;;;;9.70;7.90;;;;;;;;;;10422992;28;20678;-85
2023/06/09 13:54:21;;;;;;;12.20;9.35;;;;;;;;;;10424225;28;20128;-86
2023/06/09 13:59:22;;;;;;;15.10;9.82;;;;;;;;;;10441415;28;20025;-87
2023/06/09 14:04:26;;;;;;;11.75;10.23;;;;;;;;;;10425173;28;20035;-85
2023/06/09 14:09:27;;;;;;;14.52;10.15;;;;;;;;;;10441867;28;20076;-85
2023/06/09 14:14:28;;;;;;;12.82;10.10;;;;;;;;;;10416023;28;20035;-85
2023/06/09 14:19:29;;;;;;;29.05;15.20;;;;;;;;;;10442490;28;20039;-86
2023/06/09 14:24:30;;;;;;;18.38;7.55;;;;;;;;;;10443691;28;20035;-85
2023/06/09 14:29:36;;;;;;;42.45;16.90;;;;;;;;;;10442680;28;20035;-86
2023/06/09 14:34:37;;;;;;;143.15;34.45;;;;;;;;;;10443103;28;20037;-84
2023/06/09 14:39:38;;;;;;;19.25;14.15;;;;;;;;;;10443192;28;20488;-85
2023/06/09 14:44:39;;;;;;;24.23;17.00;;;;;;;;;;10443945;28;20048;-85
2023/06/09 14:49:40;;;;;;;29.45;17.60;;;;;;;;;;10445601;28;20526;-84
2023/06/09 14:54:41;;;;;;;18.52;11.85;;;;;;;;;;10448011;28;20732;-83
2023/06/09 14:59:42;;;;;;;19.33;13.27;;;;;;;;;;10433409;28;20106;-84
2023/06/09 15:04:43;;;;;;;25.33;15.60;;;;;;;;;;10432810;28;20025;-86
2023/06/09 15:09:44;;;;;;;28.92;19.45;;;;;;;;;;10450366;28;20032;-83
2023/06/09 15:14:45;;;;;;;26.63;17.63;;;;;;;;;;10429573;28;20040;-83
2023/06/09 15:19:46;;;;;;;31.98;19.15;;;;;;;;;;10427424;28;20048;-85
2023/06/09 15:24:51;;;;;;;32.70;19.90;;;;;;;;;;10432648;28;20025;-86
2023/06/09 15:29:53;;;;;;;35.47;21.92;;;;;;;;;;10451034;28;20029;-84
2023/06/09 15:34:54;;;;;;;44.63;26.02;;;;;;;;;;10449259;28;20029;-86
2023/06/09 15:39:55;;;;;;;35.00;21.98;;;;;;;;;;10447059;28;20138;-84
2023/06/09 15:44:56;;;;;;;75.10;30.13;;;;;;;;;;10426786;28;20017;-86
2023/06/09 15:49:57;;;;;;;36.88;23.58;;;;;;;;;;10431883;28;20025;-85
2023/06/09 15:54:58;;;;;;;40.38;23.20;;;;;;;;;;10422722;28;20050;-84
2023/06/09 15:59:59;;;;;;;47.42;26.83;;;;;;;;;;10448946;28;20178;-86
2023/06/09 16:05:00;;;;;;;30.33;20.88;;;;;;;;;;10427235;28;20033;-84
2023/06/09 16:10:02;;;;;;;42.75;23.15;;;;;;;;;;10438100;28;20045;-84
2023/06/09 16:15:03;;;;;;;44.20;23.20;;;;;;;;;;10441970;28;20033;-84
2023/06/09 16:20:05;;;;;;;27.13;17.10;;;;;;;;;;10440978;28;20041;-85
2023/06/09 16:25:06;;;;;;;28.85;18.98;;;;;;;;;;10419314;28;20461;-84
2023/06/09 16:36:26;;;;;;;62.45;27.25;;;;;;;;;;10386869;28;20434;-83
2023/06/09 16:41:27;;;;;;;39.85;22.83;;;;;;;;;;10421511;28;20029;-85
2023/06/09 16:52:38;;;;;;;43.05;22.70;;;;;;;;;;10476958;28;20040;-85
2023/06/09 17:03:18;;;;;;;62.65;29.23;;;;;;;;;;10478325;28;20068;-84
2023/06/09 17:08:19;;;;;;;252.73;52.10;;;;;;;;;;10444206;28;20017;-84
2023/06/09 17:13:20;;;;;;;26.98;18.25;;;;;;;;;;10475961;28;20529;-84
2023/06/09 17:24:37;;;;;;;48.63;26.08;;;;;;;;;;10488262;28;20460;-86
2023/06/09 17:29:39;;;;;;;43.40;24.80;;;;;;;;;;10459284;28;20056;-85
2023/06/09 17:34:40;;;;;;;66.03;29.27;;;;;;;;;;10450787;28;20049;-85
2023/06/09 17:45:22;;;;;;;52.30;31.35;;;;;;;;;;10448836;28;20115;-85
2023/06/09 17:50:23;;;;;;;63.08;34.05;;;;;;;;;;10435189;28;20079;-85
2023/06/09 17:55:24;;;;;;;54.97;33.38;;;;;;;;;;10427394;28;20036;-88
2023/06/09 18:00:26;;;;;;;49.03;31.80;;;;;;;;;;10426616;28;20036;-83
2023/06/09 18:05:27;;;;;;;54.75;35.83;;;;;;;;;;10439720;28;20029;-83
2023/06/09 18:16:32;;;;;;;88.15;46.05;;;;;;;;;;10441322;28;20041;-88
2023/06/09 18:27:28;;;;;;;75.20;40.45;;;;;;;;;;10453070;28;19992;-84
2023/06/09 18:32:30;;;;;;;111.20;46.88;;;;;;;;;;10434676;28;20044;-87
2023/06/09 18:43:10;;;;;;;57.67;36.15;;;;;;;;;;10387960;28;20025;-86
2023/06/09 18:59:31;;;;;;;62.95;36.13;;;;;;;;;;10407224;28;20044;-82
2023/06/09 19:22:04;;;;;;;56.65;32.97;;;;;;;;;;10278049;28;20454;-83
2023/06/09 19:27:05;;;;;;;43.28;29.52;;;;;;;;;;10294900;28;20088;-85
2023/06/09 19:32:07;;;;;;;40.85;27.80;;;;;;;;;;10264656;28;20054;-84
2023/06/09 19:48:25;;;;;;;41.65;28.23;;;;;;;;;;10931617;22;20013;-83
2023/06/09 20:10:05;;;;;;;45.90;29.75;;;;;;;;;;11740582;23;20052;-84
2023/06/09 20:15:07;;;;;;;60.15;34.47;;;;;;;;;;10440277;28;20040;-86
2023/06/09 20:20:41;;;;;;;47.28;31.85;;;;;;;;;;10425421;28;20025;-83
2023/06/09 20:25:56;;;;;;;65.53;35.65;;;;;;;;;;10426254;28;20123;-85
2023/06/09 20:30:57;;;;;;;60.78;35.78;;;;;;;;;;10416029;28;20033;-83
2023/06/09 20:35:59;;;;;;;49.47;33.60;;;;;;;;;;10412954;28;20125;-83
2023/06/09 20:41:00;;;;;;;58.97;35.35;;;;;;;;;;10439312;28;20025;-83
2023/06/09 20:46:01;;;;;;;44.95;31.15;;;;;;;;;;10436070;28;20503;-87
2023/06/09 20:51:03;;;;;;;40.13;29.60;;;;;;;;;;10406906;28;20151;-85
2023/06/09 20:56:04;;;;;;;44.67;30.40;;;;;;;;;;10435572;28;20025;-85
2023/06/09 21:01:12;;;;;;;46.08;30.13;;;;;;;;;;10404150;28;20391;-84
2023/06/09 21:06:19;;;;;;;42.75;29.63;;;;;;;;;;10402358;28;20389;-84
2023/06/09 21:11:21;;;;;;;45.20;29.88;;;;;;;;;;10401010;28;20053;-86
2023/06/09 21:16:22;;;;;;;49.72;31.58;;;;;;;;;;10427690;28;20031;-86
2023/06/09 21:21:24;;;;;;;38.10;26.38;;;;;;;;;;10409468;28;20041;-84
2023/06/09 21:26:27;;;;;;;41.80;27.70;;;;;;;;;;10424322;28;20033;-83
2023/06/09 21:31:28;;;;;;;47.65;30.00;;;;;;;;;;10435420;28;20764;-84
2023/06/09 21:36:30;;;;;;;32.47;25.20;;;;;;;;;;10431645;28;20112;-83
2023/06/09 21:41:31;;;;;;;36.78;25.83;;;;;;;;;;10419125;28;20030;-85
2023/06/09 21:46:32;;;;;;;38.95;26.73;;;;;;;;;;10435907;28;20028;-84
2023/06/09 21:51:33;;;;;;;38.90;26.85;;;;;;;;;;10412964;28;20132;-83
2023/06/09 21:56:37;;;;;;;37.58;26.83;;;;;;;;;;10416661;28;20537;-85
2023/06/09 22:01:38;;;;;;;32.67;24.83;;;;;;;;;;10432374;28;20493;-83
2023/06/09 22:06:39;;;;;;;49.67;28.38;;;;;;;;;;10436033;28;20021;-83
2023/06/09 22:11:45;;;;;;;37.28;25.25;;;;;;;;;;10434492;28;20062;-84
2023/06/09 22:16:52;;;;;;;;;;;;;;;;;;10417063;28;20025;-85
2023/06/09 22:21:53;;;;;;;47.10;28.00;;;;;;;;;;10432066;28;19908;-83
2023/06/09 22:26:54;;;;;;;28.60;20.88;;;;;;;;;;10435456;28;20818;-85
2023/06/09 22:31:55;;;;;;;37.85;25.75;;;;;;;;;;10435093;28;20076;-83
2023/06/09 22:36:56;;;;;;;38.65;24.52;;;;;;;;;;10421213;28;20029;-83
2023/06/09 22:41:57;;;;;;;35.35;24.63;;;;;;;;;;10411152;28;20491;-84
2023/06/09 22:46:58;;;;;;;53.60;30.85;;;;;;;;;;10426879;28;20037;-84
2023/06/09 22:52:00;;;;;;;53.47;30.00;;;;;;;;;;10429860;28;20120;-83
2023/06/09 22:57:01;;;;;;;64.05;33.40;;;;;;;;;;10410464;28;20029;-83
2023/06/09 23:02:02;;;;;;;138.27;44.90;;;;;;;;;;10437253;28;20040;-84
2023/06/09 23:07:04;;;;;;;85.80;37.05;;;;;;;;;;10442498;28;20032;-85
2023/06/09 23:12:05;;;;;;;39.17;26.83;;;;;;;;;;10437064;28;20614;-84
2023/06/09 23:17:08;;;;;;;39.97;26.55;;;;;;;;;;10414220;28;20408;-85
2023/06/09 23:22:12;;;;;;;40.05;27.65;;;;;;;;;;10419855;28;20098;-82
2023/06/09 23:27:13;;;;;;;81.13;37.17;;;;;;;;;;10430900;28;20041;-84
2023/06/09 23:32:15;;;;;;;39.90;26.70;;;;;;;;;;10422747;28;20384;-83
2023/06/09 23:37:20;;;;;;;100.68;41.20;;;;;;;;;;10435227;28;20033;-85
2023/06/09 23:42:21;;;;;;;40.70;27.25;;;;;;;;;;10421189;28;20120;-83
2023/06/09 23:47:22;;;;;;;110.72;42.70;;;;;;;;;;10429533;28;20025;-84
2023/06/09 23:52:23;;;;;;;90.22;39.80;;;;;;;;;;10427359;28;20034;-82
2023/06/09 23:57:24;;;;;;;86.82;37.05;;;;;;;;;;10435762;28;20028;-85
